sensor_id;sensor_type;location;lat;lon;timestamp;temperature;humidity
35668;DHT22;22158;59.280;17.806;2023-08-24T00:00:20;16.90;99.90
35668;DHT22;22158;59.280;17.806;2023-08-24T00:02:46;16.90;99.90
35668;DHT22;22158;59.280;17.806;2023-08-24T00:05:12;16.90;99.90
35668;DHT22;22158;59.280;17.806;2023-08-24T00:07:38;16.90;99.90
35668;DHT22;22158;59.280;17.806;2023-08-24T00:10:05;17.00;99.90
35668;DHT22;22158;59.280;17.806;2023-08-24T00:12:33;16.90;99.90
35668;DHT22;22158;59.280;17.806;2023-08-24T00:14:59;16.90;99.90
35668;DHT22;22158;59.280;17.806;2023-08-24T00:17:24;16.90;99.90
35668;DHT22;22158;59.280;17.806;2023-08-24T00:19:50;16.90;99.90
35668;DHT22;22158;59.280;17.806;2023-08-24T00:22:16;16.80;99.90
35668;DHT22;22158;59.280;17.806;2023-08-24T00:24:41;16.80;99.90
35668;DHT22;22158;59.280;17.806;2023-08-24T00:27:07;16.80;99.90
35668;DHT22;22158;59.280;17.806;2023-08-24T00:29:32;16.80;99.90
35668;DHT22;22158;59.280;17.806;2023-08-24T00:31:58;16.70;99.90
35668;DHT22;22158;59.280;17.806;2023-08-24T00:34:24;16.80;99.90
35668;DHT22;22158;59.280;17.806;2023-08-24T00:36:49;16.80;99.90
35668;DHT22;22158;59.280;17.806;2023-08-24T00:39:15;16.70;99.90
35668;DHT22;22158;59.280;17.806;2023-08-24T00:41:42;16.70;99.90
35668;DHT22;22158;59.280;17.806;2023-08-24T00:44:07;16.70;99.90
35668;DHT22;22158;59.280;17.806;2023-08-24T00:46:34;16.60;99.90
35668;DHT22;22158;59.280;17.806;2023-08-24T00:49:00;16.70;99.90
35668;DHT22;22158;59.280;17.806;2023-08-24T00:51:26;16.60;99.90
35668;DHT22;22158;59.280;17.806;2023-08-24T00:53:52;16.60;99.90
35668;DHT22;22158;59.280;17.806;2023-08-24T00:56:18;16.60;99.90
35668;DHT22;22158;59.280;17.806;2023-08-24T00:58:50;16.60;99.90
35668;DHT22;22158;59.280;17.806;2023-08-24T01:01:18;16.60;99.90
35668;DHT22;22158;59.280;17.806;2023-08-24T01:03:43;16.60;99.90
35668;DHT22;22158;59.280;17.806;2023-08-24T01:06:09;16.50;99.90
35668;DHT22;22158;59.280;17.806;2023-08-24T01:08:35;16.50;99.90
35668;DHT22;22158;59.280;17.806;2023-08-24T01:11:15;16.60;99.90
35668;DHT22;22158;59.280;17.806;2023-08-24T01:16:20;16.50;99.90
35668;DHT22;22158;59.280;17.806;2023-08-24T01:18:56;16.50;99.90
35668;DHT22;22158;59.280;17.806;2023-08-24T01:21:22;16.50;99.90
35668;DHT22;22158;59.280;17.806;2023-08-24T01:26:40;16.40;99.90
35668;DHT22;22158;59.280;17.806;2023-08-24T01:29:07;16.40;99.90
35668;DHT22;22158;59.280;17.806;2023-08-24T01:31:33;16.40;99.90
35668;DHT22;22158;59.280;17.806;2023-08-24T01:33:59;16.40;99.90
35668;DHT22;22158;59.280;17.806;2023-08-24T01:36:26;16.40;99.90
35668;DHT22;22158;59.280;17.806;2023-08-24T01:39:28;16.40;99.90
35668;DHT22;22158;59.280;17.806;2023-08-24T01:41:58;16.40;99.90
35668;DHT22;22158;59.280;17.806;2023-08-24T01:44:27;16.40;99.90
35668;DHT22;22158;59.280;17.806;2023-08-24T01:46:54;16.40;99.90
35668;DHT22;22158;59.280;17.806;2023-08-24T01:49:22;16.30;99.90
35668;DHT22;22158;59.280;17.806;2023-08-24T01:51:48;16.40;99.90
35668;DHT22;22158;59.280;17.806;2023-08-24T01:54:14;16.40;99.90
35668;DHT22;22158;59.280;17.806;2023-08-24T01:56:40;16.40;99.90
35668;DHT22;22158;59.280;17.806;2023-08-24T01:59:06;16.40;99.90
35668;DHT22;22158;59.280;17.806;2023-08-24T02:01:31;16.40;99.90
35668;DHT22;22158;59.280;17.806;2023-08-24T02:04:03;16.40;99.90
35668;DHT22;22158;59.280;17.806;2023-08-24T02:06:29;16.40;99.90
35668;DHT22;22158;59.280;17.806;2023-08-24T02:08:54;16.40;99.90
35668;DHT22;22158;59.280;17.806;2023-08-24T02:11:20;16.40;99.90
35668;DHT22;22158;59.280;17.806;2023-08-24T02:13:46;16.30;99.90
35668;DHT22;22158;59.280;17.806;2023-08-24T02:16:11;16.40;99.90
35668;DHT22;22158;59.280;17.806;2023-08-24T02:18:38;16.30;99.90
35668;DHT22;22158;59.280;17.806;2023-08-24T02:21:08;16.30;99.90
35668;DHT22;22158;59.280;17.806;2023-08-24T02:23:34;16.30;99.90
35668;DHT22;22158;59.280;17.806;2023-08-24T02:25:59;16.20;99.90
35668;DHT22;22158;59.280;17.806;2023-08-24T02:28:25;16.30;99.90
35668;DHT22;22158;59.280;17.806;2023-08-24T02:30:51;16.20;99.90
35668;DHT22;22158;59.280;17.806;2023-08-24T02:33:16;16.20;99.90
35668;DHT22;22158;59.280;17.806;2023-08-24T02:35:42;16.10;99.90
35668;DHT22;22158;59.280;17.806;2023-08-24T02:38:10;16.10;99.90
35668;DHT22;22158;59.280;17.806;2023-08-24T02:40:36;16.10;99.90
35668;DHT22;22158;59.280;17.806;2023-08-24T02:43:01;16.10;99.90
35668;DHT22;22158;59.280;17.806;2023-08-24T02:45:27;16.10;99.90
35668;DHT22;22158;59.280;17.806;2023-08-24T02:47:53;16.10;99.90
35668;DHT22;22158;59.280;17.806;2023-08-24T02:50:19;16.10;99.90
35668;DHT22;22158;59.280;17.806;2023-08-24T02:52:44;16.10;99.90
35668;DHT22;22158;59.280;17.806;2023-08-24T02:55:11;15.90;99.90
35668;DHT22;22158;59.280;17.806;2023-08-24T02:57:37;16.00;99.90
35668;DHT22;22158;59.280;17.806;2023-08-24T03:00:03;15.90;99.90
35668;DHT22;22158;59.280;17.806;2023-08-24T03:02:32;15.90;99.90
35668;DHT22;22158;59.280;17.806;2023-08-24T03:04:57;15.90;99.90
35668;DHT22;22158;59.280;17.806;2023-08-24T03:07:23;15.90;99.90
35668;DHT22;22158;59.280;17.806;2023-08-24T03:09:49;15.80;99.90
35668;DHT22;22158;59.280;17.806;2023-08-24T03:12:14;15.80;99.90
35668;DHT22;22158;59.280;17.806;2023-08-24T03:14:40;15.90;99.90
35668;DHT22;22158;59.280;17.806;2023-08-24T03:17:06;15.80;99.90
35668;DHT22;22158;59.280;17.806;2023-08-24T03:19:32;15.80;99.90
35668;DHT22;22158;59.280;17.806;2023-08-24T03:21:58;15.80;99.90
35668;DHT22;22158;59.280;17.806;2023-08-24T03:24:24;15.90;99.90
35668;DHT22;22158;59.280;17.806;2023-08-24T03:26:49;15.90;99.90
35668;DHT22;22158;59.280;17.806;2023-08-24T03:29:15;15.80;99.90
35668;DHT22;22158;59.280;17.806;2023-08-24T03:31:41;15.80;99.90
35668;DHT22;22158;59.280;17.806;2023-08-24T03:34:06;15.80;99.90
35668;DHT22;22158;59.280;17.806;2023-08-24T03:36:32;15.80;99.90
35668;DHT22;22158;59.280;17.806;2023-08-24T03:38:58;15.80;99.90
35668;DHT22;22158;59.280;17.806;2023-08-24T03:41:23;15.80;99.90
35668;DHT22;22158;59.280;17.806;2023-08-24T03:43:49;15.80;99.90
35668;DHT22;22158;59.280;17.806;2023-08-24T03:46:15;15.70;99.90
35668;DHT22;22158;59.280;17.806;2023-08-24T03:48:40;15.80;99.90
35668;DHT22;22158;59.280;17.806;2023-08-24T03:51:06;15.70;99.90
35668;DHT22;22158;59.280;17.806;2023-08-24T03:53:32;15.70;99.90
35668;DHT22;22158;59.280;17.806;2023-08-24T03:55:58;15.70;99.90
35668;DHT22;22158;59.280;17.806;2023-08-24T03:58:23;15.70;99.90
35668;DHT22;22158;59.280;17.806;2023-08-24T04:00:49;15.60;99.90
35668;DHT22;22158;59.280;17.806;2023-08-24T04:03:15;15.60;99.90
35668;DHT22;22158;59.280;17.806;2023-08-24T04:05:42;15.60;99.90
35668;DHT22;22158;59.280;17.806;2023-08-24T04:08:08;15.50;99.90
35668;DHT22;22158;59.280;17.806;2023-08-24T04:10:33;15.50;99.90
35668;DHT22;22158;59.280;17.806;2023-08-24T04:12:59;15.50;99.90
35668;DHT22;22158;59.280;17.806;2023-08-24T04:15:25;15.50;99.90
35668;DHT22;22158;59.280;17.806;2023-08-24T04:17:50;15.50;99.90
35668;DHT22;22158;59.280;17.806;2023-08-24T04:20:16;15.50;99.90
35668;DHT22;22158;59.280;17.806;2023-08-24T04:22:42;15.60;99.90
35668;DHT22;22158;59.280;17.806;2023-08-24T04:25:09;15.60;99.90
35668;DHT22;22158;59.280;17.806;2023-08-24T04:27:35;15.50;99.90
35668;DHT22;22158;59.280;17.806;2023-08-24T04:30:00;15.60;99.90
35668;DHT22;22158;59.280;17.806;2023-08-24T04:32:27;15.60;99.90
35668;DHT22;22158;59.280;17.806;2023-08-24T04:34:53;15.60;99.90
35668;DHT22;22158;59.280;17.806;2023-08-24T04:37:19;15.70;99.90
35668;DHT22;22158;59.280;17.806;2023-08-24T04:39:45;15.80;99.90
35668;DHT22;22158;59.280;17.806;2023-08-24T04:42:10;15.80;99.90
35668;DHT22;22158;59.280;17.806;2023-08-24T04:44:36;15.80;99.90
35668;DHT22;22158;59.280;17.806;2023-08-24T04:47:01;15.90;99.90
35668;DHT22;22158;59.280;17.806;2023-08-24T04:49:27;16.00;99.90
35668;DHT22;22158;59.280;17.806;2023-08-24T04:51:54;16.00;99.90
35668;DHT22;22158;59.280;17.806;2023-08-24T04:54:19;16.10;99.90
35668;DHT22;22158;59.280;17.806;2023-08-24T04:56:45;16.20;99.90
35668;DHT22;22158;59.280;17.806;2023-08-24T04:59:10;16.20;99.90
35668;DHT22;22158;59.280;17.806;2023-08-24T05:01:36;16.20;99.90
35668;DHT22;22158;59.280;17.806;2023-08-24T05:04:02;16.20;99.90
35668;DHT22;22158;59.280;17.806;2023-08-24T05:06:28;16.20;99.90
35668;DHT22;22158;59.280;17.806;2023-08-24T05:08:53;16.20;99.90
35668;DHT22;22158;59.280;17.806;2023-08-24T05:11:22;16.20;99.90
35668;DHT22;22158;59.280;17.806;2023-08-24T05:13:48;16.30;99.90
35668;DHT22;22158;59.280;17.806;2023-08-24T05:16:13;16.20;99.90
35668;DHT22;22158;59.280;17.806;2023-08-24T05:18:40;16.20;99.90
35668;DHT22;22158;59.280;17.806;2023-08-24T05:21:06;16.30;99.90
35668;DHT22;22158;59.280;17.806;2023-08-24T05:23:32;16.20;99.90
35668;DHT22;22158;59.280;17.806;2023-08-24T05:25:59;16.30;99.90
35668;DHT22;22158;59.280;17.806;2023-08-24T05:28:29;16.30;99.90
35668;DHT22;22158;59.280;17.806;2023-08-24T05:30:55;16.30;99.90
35668;DHT22;22158;59.280;17.806;2023-08-24T05:33:21;16.20;99.90
35668;DHT22;22158;59.280;17.806;2023-08-24T05:35:48;16.30;99.90
35668;DHT22;22158;59.280;17.806;2023-08-24T05:38:15;16.30;99.90
35668;DHT22;22158;59.280;17.806;2023-08-24T05:40:41;16.30;99.90
35668;DHT22;22158;59.280;17.806;2023-08-24T05:43:11;16.30;99.90
35668;DHT22;22158;59.280;17.806;2023-08-24T05:45:36;16.30;99.90
35668;DHT22;22158;59.280;17.806;2023-08-24T05:48:06;16.20;99.90
35668;DHT22;22158;59.280;17.806;2023-08-24T05:50:31;16.10;99.90
35668;DHT22;22158;59.280;17.806;2023-08-24T05:52:57;16.20;99.90
35668;DHT22;22158;59.280;17.806;2023-08-24T05:55:22;16.20;99.90
35668;DHT22;22158;59.280;17.806;2023-08-24T05:57:48;16.20;99.90
35668;DHT22;22158;59.280;17.806;2023-08-24T06:00:14;16.20;99.90
35668;DHT22;22158;59.280;17.806;2023-08-24T06:02:40;16.20;99.90
35668;DHT22;22158;59.280;17.806;2023-08-24T06:05:06;16.20;99.90
35668;DHT22;22158;59.280;17.806;2023-08-24T06:07:33;16.20;99.90
35668;DHT22;22158;59.280;17.806;2023-08-24T06:09:59;16.20;99.90
35668;DHT22;22158;59.280;17.806;2023-08-24T06:12:24;16.30;99.90
35668;DHT22;22158;59.280;17.806;2023-08-24T06:14:50;16.40;99.90
35668;DHT22;22158;59.280;17.806;2023-08-24T06:17:16;16.50;99.90
35668;DHT22;22158;59.280;17.806;2023-08-24T06:19:42;16.60;99.90
35668;DHT22;22158;59.280;17.806;2023-08-24T06:22:07;16.60;99.90
35668;DHT22;22158;59.280;17.806;2023-08-24T06:24:33;16.80;99.90
35668;DHT22;22158;59.280;17.806;2023-08-24T06:26:58;16.90;99.90
35668;DHT22;22158;59.280;17.806;2023-08-24T06:29:24;17.00;99.90
35668;DHT22;22158;59.280;17.806;2023-08-24T06:31:50;17.10;99.90
35668;DHT22;22158;59.280;17.806;2023-08-24T06:34:15;17.20;99.90
35668;DHT22;22158;59.280;17.806;2023-08-24T06:36:41;17.30;99.90
35668;DHT22;22158;59.280;17.806;2023-08-24T06:39:06;17.40;99.90
35668;DHT22;22158;59.280;17.806;2023-08-24T06:41:35;17.40;99.90
35668;DHT22;22158;59.280;17.806;2023-08-24T06:44:02;17.40;99.90
35668;DHT22;22158;59.280;17.806;2023-08-24T06:46:28;17.50;99.90
35668;DHT22;22158;59.280;17.806;2023-08-24T06:48:54;17.50;99.90
35668;DHT22;22158;59.280;17.806;2023-08-24T06:51:19;17.60;99.90
35668;DHT22;22158;59.280;17.806;2023-08-24T06:53:45;17.70;99.90
35668;DHT22;22158;59.280;17.806;2023-08-24T06:56:13;17.70;99.90
35668;DHT22;22158;59.280;17.806;2023-08-24T06:58:39;17.70;99.90
35668;DHT22;22158;59.280;17.806;2023-08-24T07:01:05;17.70;99.90
35668;DHT22;22158;59.280;17.806;2023-08-24T07:03:31;17.70;99.90
35668;DHT22;22158;59.280;17.806;2023-08-24T07:05:58;17.80;99.90
35668;DHT22;22158;59.280;17.806;2023-08-24T07:08:24;17.80;99.90
35668;DHT22;22158;59.280;17.806;2023-08-24T07:10:50;17.90;99.90
35668;DHT22;22158;59.280;17.806;2023-08-24T07:13:15;17.80;99.90
35668;DHT22;22158;59.280;17.806;2023-08-24T07:15:41;17.90;99.90
35668;DHT22;22158;59.280;17.806;2023-08-24T07:18:07;18.00;99.90
35668;DHT22;22158;59.280;17.806;2023-08-24T07:20:34;18.00;99.90
35668;DHT22;22158;59.280;17.806;2023-08-24T07:23:00;18.00;99.90
35668;DHT22;22158;59.280;17.806;2023-08-24T07:25:26;18.10;99.90
35668;DHT22;22158;59.280;17.806;2023-08-24T07:27:53;18.10;99.90
35668;DHT22;22158;59.280;17.806;2023-08-24T07:30:24;18.20;99.90
35668;DHT22;22158;59.280;17.806;2023-08-24T07:32:50;18.20;99.90
35668;DHT22;22158;59.280;17.806;2023-08-24T07:35:15;18.30;99.90
35668;DHT22;22158;59.280;17.806;2023-08-24T07:37:41;18.40;99.90
35668;DHT22;22158;59.280;17.806;2023-08-24T07:40:07;18.40;99.90
35668;DHT22;22158;59.280;17.806;2023-08-24T07:42:43;18.50;99.90
35668;DHT22;22158;59.280;17.806;2023-08-24T07:45:09;18.60;99.90
35668;DHT22;22158;59.280;17.806;2023-08-24T07:47:35;18.60;99.90
35668;DHT22;22158;59.280;17.806;2023-08-24T07:50:00;18.60;99.90
35668;DHT22;22158;59.280;17.806;2023-08-24T07:52:26;18.60;99.90
35668;DHT22;22158;59.280;17.806;2023-08-24T07:54:54;18.60;99.90
35668;DHT22;22158;59.280;17.806;2023-08-24T07:57:20;18.70;99.90
35668;DHT22;22158;59.280;17.806;2023-08-24T07:59:46;18.70;99.90
35668;DHT22;22158;59.280;17.806;2023-08-24T08:02:12;18.70;99.90
35668;DHT22;22158;59.280;17.806;2023-08-24T08:04:37;18.80;99.90
35668;DHT22;22158;59.280;17.806;2023-08-24T08:07:03;18.80;99.90
35668;DHT22;22158;59.280;17.806;2023-08-24T08:09:28;18.90;99.90
35668;DHT22;22158;59.280;17.806;2023-08-24T08:11:54;19.00;99.90
35668;DHT22;22158;59.280;17.806;2023-08-24T08:14:20;19.10;99.90
35668;DHT22;22158;59.280;17.806;2023-08-24T08:16:45;19.10;99.90
35668;DHT22;22158;59.280;17.806;2023-08-24T08:19:11;19.20;99.90
35668;DHT22;22158;59.280;17.806;2023-08-24T08:21:36;19.30;99.90
35668;DHT22;22158;59.280;17.806;2023-08-24T08:24:02;19.40;99.90
35668;DHT22;22158;59.280;17.806;2023-08-24T08:26:28;19.30;99.90
35668;DHT22;22158;59.280;17.806;2023-08-24T08:28:54;19.30;99.90
35668;DHT22;22158;59.280;17.806;2023-08-24T08:31:20;19.30;99.90
35668;DHT22;22158;59.280;17.806;2023-08-24T08:33:45;19.30;99.90
35668;DHT22;22158;59.280;17.806;2023-08-24T08:36:11;19.30;99.90
35668;DHT22;22158;59.280;17.806;2023-08-24T08:38:36;19.30;99.90
35668;DHT22;22158;59.280;17.806;2023-08-24T08:41:03;19.40;99.90
35668;DHT22;22158;59.280;17.806;2023-08-24T08:43:30;19.40;99.90
35668;DHT22;22158;59.280;17.806;2023-08-24T08:45:56;19.40;99.90
35668;DHT22;22158;59.280;17.806;2023-08-24T08:48:23;19.40;99.90
35668;DHT22;22158;59.280;17.806;2023-08-24T08:50:50;19.50;99.90
35668;DHT22;22158;59.280;17.806;2023-08-24T08:53:16;19.50;99.90
35668;DHT22;22158;59.280;17.806;2023-08-24T08:55:42;19.50;99.90
35668;DHT22;22158;59.280;17.806;2023-08-24T08:58:08;19.60;99.90
35668;DHT22;22158;59.280;17.806;2023-08-24T09:00:35;19.80;99.90
35668;DHT22;22158;59.280;17.806;2023-08-24T09:03:01;19.80;99.90
35668;DHT22;22158;59.280;17.806;2023-08-24T09:05:28;19.80;99.90
35668;DHT22;22158;59.280;17.806;2023-08-24T09:07:54;19.80;99.90
35668;DHT22;22158;59.280;17.806;2023-08-24T09:10:23;19.80;99.90
35668;DHT22;22158;59.280;17.806;2023-08-24T09:12:48;19.90;99.90
35668;DHT22;22158;59.280;17.806;2023-08-24T09:15:14;19.80;99.90
35668;DHT22;22158;59.280;17.806;2023-08-24T09:17:43;19.80;99.90
35668;DHT22;22158;59.280;17.806;2023-08-24T09:20:09;19.80;99.90
35668;DHT22;22158;59.280;17.806;2023-08-24T09:22:38;19.80;99.90
35668;DHT22;22158;59.280;17.806;2023-08-24T09:25:08;19.90;99.90
35668;DHT22;22158;59.280;17.806;2023-08-24T09:27:34;20.00;99.90
35668;DHT22;22158;59.280;17.806;2023-08-24T09:30:00;20.00;99.90
35668;DHT22;22158;59.280;17.806;2023-08-24T09:32:29;20.00;99.90
35668;DHT22;22158;59.280;17.806;2023-08-24T09:34:56;20.10;99.90
35668;DHT22;22158;59.280;17.806;2023-08-24T09:37:31;20.10;99.90
35668;DHT22;22158;59.280;17.806;2023-08-24T09:40:02;20.20;99.90
35668;DHT22;22158;59.280;17.806;2023-08-24T09:42:40;20.20;99.90
35668;DHT22;22158;59.280;17.806;2023-08-24T09:45:13;20.20;99.90
35668;DHT22;22158;59.280;17.806;2023-08-24T09:47:39;20.20;99.90
35668;DHT22;22158;59.280;17.806;2023-08-24T09:50:09;20.20;99.90
35668;DHT22;22158;59.280;17.806;2023-08-24T09:52:35;20.10;99.90
35668;DHT22;22158;59.280;17.806;2023-08-24T09:55:04;20.20;99.90
35668;DHT22;22158;59.280;17.806;2023-08-24T09:57:36;20.30;99.90
35668;DHT22;22158;59.280;17.806;2023-08-24T10:00:08;20.40;99.90
35668;DHT22;22158;59.280;17.806;2023-08-24T10:02:59;20.70;99.90
35668;DHT22;22158;59.280;17.806;2023-08-24T10:05:27;20.80;99.90
35668;DHT22;22158;59.280;17.806;2023-08-24T10:07:56;20.80;99.90
35668;DHT22;22158;59.280;17.806;2023-08-24T10:10:25;20.80;99.90
35668;DHT22;22158;59.280;17.806;2023-08-24T10:12:56;20.80;99.90
35668;DHT22;22158;59.280;17.806;2023-08-24T10:15:23;20.80;99.90
35668;DHT22;22158;59.280;17.806;2023-08-24T10:17:50;20.70;99.90
35668;DHT22;22158;59.280;17.806;2023-08-24T10:20:19;20.70;99.90
35668;DHT22;22158;59.280;17.806;2023-08-24T10:22:46;20.80;99.90
35668;DHT22;22158;59.280;17.806;2023-08-24T10:25:13;20.70;99.90
35668;DHT22;22158;59.280;17.806;2023-08-24T10:27:39;20.80;99.90
35668;DHT22;22158;59.280;17.806;2023-08-24T10:30:13;20.90;99.90
35668;DHT22;22158;59.280;17.806;2023-08-24T10:32:40;21.20;99.90
35668;DHT22;22158;59.280;17.806;2023-08-24T10:35:06;21.40;99.90
35668;DHT22;22158;59.280;17.806;2023-08-24T10:37:32;21.40;99.90
35668;DHT22;22158;59.280;17.806;2023-08-24T10:39:59;21.70;99.90
35668;DHT22;22158;59.280;17.806;2023-08-24T10:42:26;21.80;99.90
35668;DHT22;22158;59.280;17.806;2023-08-24T10:44:52;21.90;99.90
35668;DHT22;22158;59.280;17.806;2023-08-24T10:47:21;22.00;99.90
35668;DHT22;22158;59.280;17.806;2023-08-24T10:49:58;22.00;99.90
35668;DHT22;22158;59.280;17.806;2023-08-24T10:52:32;22.00;99.90
35668;DHT22;22158;59.280;17.806;2023-08-24T10:55:03;21.70;99.90
35668;DHT22;22158;59.280;17.806;2023-08-24T10:57:37;21.50;99.90
35668;DHT22;22158;59.280;17.806;2023-08-24T11:00:11;21.60;99.90
35668;DHT22;22158;59.280;17.806;2023-08-24T11:02:48;21.50;99.90
35668;DHT22;22158;59.280;17.806;2023-08-24T11:05:19;21.40;99.90
35668;DHT22;22158;59.280;17.806;2023-08-24T11:07:51;21.50;99.90
35668;DHT22;22158;59.280;17.806;2023-08-24T11:10:17;21.60;99.90
35668;DHT22;22158;59.280;17.806;2023-08-24T11:15:39;21.80;99.90
35668;DHT22;22158;59.280;17.806;2023-08-24T11:18:12;22.10;99.90
35668;DHT22;22158;59.280;17.806;2023-08-24T11:20:46;22.40;99.90
35668;DHT22;22158;59.280;17.806;2023-08-24T11:23:14;22.60;99.90
35668;DHT22;22158;59.280;17.806;2023-08-24T11:25:40;22.70;99.90
35668;DHT22;22158;59.280;17.806;2023-08-24T11:28:06;22.80;99.90
35668;DHT22;22158;59.280;17.806;2023-08-24T11:30:32;22.90;99.90
35668;DHT22;22158;59.280;17.806;2023-08-24T11:33:01;22.80;99.90
35668;DHT22;22158;59.280;17.806;2023-08-24T11:35:28;22.90;99.90
35668;DHT22;22158;59.280;17.806;2023-08-24T11:37:57;23.10;99.90
35668;DHT22;22158;59.280;17.806;2023-08-24T11:40:23;23.30;99.90
35668;DHT22;22158;59.280;17.806;2023-08-24T11:42:58;23.20;99.90
35668;DHT22;22158;59.280;17.806;2023-08-24T11:45:24;23.30;99.90
35668;DHT22;22158;59.280;17.806;2023-08-24T11:47:54;23.50;99.90
35668;DHT22;22158;59.280;17.806;2023-08-24T11:50:20;23.70;99.90
35668;DHT22;22158;59.280;17.806;2023-08-24T11:52:45;23.80;99.90
35668;DHT22;22158;59.280;17.806;2023-08-24T11:55:12;23.70;99.90
35668;DHT22;22158;59.280;17.806;2023-08-24T11:57:38;23.70;99.90
35668;DHT22;22158;59.280;17.806;2023-08-24T12:00:04;23.80;99.70
35668;DHT22;22158;59.280;17.806;2023-08-24T12:02:30;23.80;99.30
35668;DHT22;22158;59.280;17.806;2023-08-24T12:04:57;23.80;99.50
35668;DHT22;22158;59.280;17.806;2023-08-24T12:07:24;23.80;99.60
35668;DHT22;22158;59.280;17.806;2023-08-24T12:09:50;24.00;99.90
35668;DHT22;22158;59.280;17.806;2023-08-24T12:12:18;24.20;99.70
35668;DHT22;22158;59.280;17.806;2023-08-24T12:14:47;24.20;99.10
35668;DHT22;22158;59.280;17.806;2023-08-24T12:17:14;24.40;98.30
35668;DHT22;22158;59.280;17.806;2023-08-24T12:19:44;24.30;98.00
35668;DHT22;22158;59.280;17.806;2023-08-24T12:22:16;24.40;99.50
35668;DHT22;22158;59.280;17.806;2023-08-24T12:24:45;24.40;98.80
35668;DHT22;22158;59.280;17.806;2023-08-24T12:27:22;24.50;99.30
35668;DHT22;22158;59.280;17.806;2023-08-24T12:29:49;24.80;99.30
35668;DHT22;22158;59.280;17.806;2023-08-24T12:32:15;24.80;97.50
35668;DHT22;22158;59.280;17.806;2023-08-24T12:34:41;24.70;97.60
35668;DHT22;22158;59.280;17.806;2023-08-24T12:37:08;24.40;98.10
35668;DHT22;22158;59.280;17.806;2023-08-24T12:39:35;24.30;98.80
35668;DHT22;22158;59.280;17.806;2023-08-24T12:42:02;24.10;98.60
35668;DHT22;22158;59.280;17.806;2023-08-24T12:44:27;23.80;99.80
35668;DHT22;22158;59.280;17.806;2023-08-24T12:46:53;23.90;99.90
35668;DHT22;22158;59.280;17.806;2023-08-24T12:49:19;23.90;99.20
35668;DHT22;22158;59.280;17.806;2023-08-24T12:51:44;23.80;99.60
35668;DHT22;22158;59.280;17.806;2023-08-24T12:54:10;23.60;99.90
35668;DHT22;22158;59.280;17.806;2023-08-24T12:56:35;23.80;99.80
35668;DHT22;22158;59.280;17.806;2023-08-24T12:59:01;24.10;98.80
35668;DHT22;22158;59.280;17.806;2023-08-24T13:01:27;24.10;99.20
35668;DHT22;22158;59.280;17.806;2023-08-24T13:03:52;24.10;98.10
35668;DHT22;22158;59.280;17.806;2023-08-24T13:06:18;23.70;97.80
35668;DHT22;22158;59.280;17.806;2023-08-24T13:08:43;23.50;99.80
35668;DHT22;22158;59.280;17.806;2023-08-24T13:11:09;23.40;99.60
35668;DHT22;22158;59.280;17.806;2023-08-24T13:13:36;23.50;99.90
35668;DHT22;22158;59.280;17.806;2023-08-24T13:16:02;23.80;98.60
35668;DHT22;22158;59.280;17.806;2023-08-24T13:18:28;23.90;99.10
35668;DHT22;22158;59.280;17.806;2023-08-24T13:20:53;23.90;99.50
35668;DHT22;22158;59.280;17.806;2023-08-24T13:23:19;23.70;99.30
35668;DHT22;22158;59.280;17.806;2023-08-24T13:25:44;23.40;99.60
35668;DHT22;22158;59.280;17.806;2023-08-24T13:28:10;23.30;99.90
35668;DHT22;22158;59.280;17.806;2023-08-24T13:30:35;22.90;99.90
35668;DHT22;22158;59.280;17.806;2023-08-24T13:33:01;22.70;99.70
35668;DHT22;22158;59.280;17.806;2023-08-24T13:35:27;22.50;99.90
35668;DHT22;22158;59.280;17.806;2023-08-24T13:37:52;22.30;99.90
35668;DHT22;22158;59.280;17.806;2023-08-24T13:40:18;22.10;99.90
35668;DHT22;22158;59.280;17.806;2023-08-24T13:42:44;22.00;99.90
35668;DHT22;22158;59.280;17.806;2023-08-24T13:45:10;21.90;99.90
35668;DHT22;22158;59.280;17.806;2023-08-24T13:47:35;21.90;99.90
35668;DHT22;22158;59.280;17.806;2023-08-24T13:50:01;21.80;99.90
35668;DHT22;22158;59.280;17.806;2023-08-24T13:52:28;21.80;99.90
35668;DHT22;22158;59.280;17.806;2023-08-24T13:54:53;21.80;99.90
35668;DHT22;22158;59.280;17.806;2023-08-24T13:57:19;21.70;99.90
35668;DHT22;22158;59.280;17.806;2023-08-24T13:59:44;21.70;99.90
35668;DHT22;22158;59.280;17.806;2023-08-24T14:02:10;21.60;99.90
35668;DHT22;22158;59.280;17.806;2023-08-24T14:04:37;21.80;99.90
35668;DHT22;22158;59.280;17.806;2023-08-24T14:07:03;22.30;99.90
35668;DHT22;22158;59.280;17.806;2023-08-24T14:09:28;22.50;99.90
35668;DHT22;22158;59.280;17.806;2023-08-24T14:11:54;22.70;99.90
35668;DHT22;22158;59.280;17.806;2023-08-24T14:14:20;22.60;99.90
35668;DHT22;22158;59.280;17.806;2023-08-24T14:16:45;22.40;99.90
35668;DHT22;22158;59.280;17.806;2023-08-24T14:19:11;22.20;99.90
35668;DHT22;22158;59.280;17.806;2023-08-24T14:21:37;22.00;99.90
35668;DHT22;22158;59.280;17.806;2023-08-24T14:24:03;21.80;99.90
35668;DHT22;22158;59.280;17.806;2023-08-24T14:26:28;21.70;99.90
35668;DHT22;22158;59.280;17.806;2023-08-24T14:28:55;21.60;99.90
35668;DHT22;22158;59.280;17.806;2023-08-24T14:31:29;21.40;99.90
35668;DHT22;22158;59.280;17.806;2023-08-24T14:33:55;21.40;99.90
35668;DHT22;22158;59.280;17.806;2023-08-24T14:36:21;21.70;99.90
35668;DHT22;22158;59.280;17.806;2023-08-24T14:38:48;22.10;99.90
35668;DHT22;22158;59.280;17.806;2023-08-24T14:41:14;22.60;99.90
35668;DHT22;22158;59.280;17.806;2023-08-24T14:43:40;23.10;99.90
35668;DHT22;22158;59.280;17.806;2023-08-24T14:46:06;23.20;99.90
35668;DHT22;22158;59.280;17.806;2023-08-24T14:48:32;23.20;99.90
35668;DHT22;22158;59.280;17.806;2023-08-24T14:50:58;23.20;99.90
35668;DHT22;22158;59.280;17.806;2023-08-24T14:53:25;23.10;99.90
35668;DHT22;22158;59.280;17.806;2023-08-24T14:55:51;23.20;99.90
35668;DHT22;22158;59.280;17.806;2023-08-24T14:58:17;23.30;99.90
35668;DHT22;22158;59.280;17.806;2023-08-24T15:00:43;23.60;99.90
35668;DHT22;22158;59.280;17.806;2023-08-24T15:03:11;23.70;99.90
35668;DHT22;22158;59.280;17.806;2023-08-24T15:05:44;23.50;98.60
35668;DHT22;22158;59.280;17.806;2023-08-24T15:08:11;23.40;99.20
35668;DHT22;22158;59.280;17.806;2023-08-24T15:10:37;23.20;99.30
35668;DHT22;22158;59.280;17.806;2023-08-24T15:13:03;23.10;99.90
35668;DHT22;22158;59.280;17.806;2023-08-24T15:15:29;23.20;99.90
35668;DHT22;22158;59.280;17.806;2023-08-24T15:17:55;23.30;99.70
35668;DHT22;22158;59.280;17.806;2023-08-24T15:20:20;23.40;99.90